sensor_id;sensor_type;location;lat;lon;timestamp;P1;durP1;ratioP1;P2;durP2;ratioP2
22826;SDS011;11580;52.562;13.418;2022-07-06T00:00:02;1.53;;;1.43;;
22826;SDS011;11580;52.562;13.418;2022-07-06T00:02:30;1.50;;;1.40;;
22826;SDS011;11580;52.562;13.418;2022-07-06T00:04:58;5.60;;;1.40;;
22826;SDS011;11580;52.562;13.418;2022-07-06T00:07:25;1.33;;;1.10;;
22826;SDS011;11580;52.562;13.418;2022-07-06T00:09:52;1.40;;;1.30;;
22826;SDS011;11580;52.562;13.418;2022-07-06T00:12:20;1.50;;;1.10;;
22826;SDS011;11580;52.562;13.418;2022-07-06T00:14:48;2.43;;;1.47;;
22826;SDS011;11580;52.562;13.418;2022-07-06T00:17:15;1.20;;;1.20;;
22826;SDS011;11580;52.562;13.418;2022-07-06T00:19:42;1.63;;;1.30;;
22826;SDS011;11580;52.562;13.418;2022-07-06T00:22:09;1.73;;;1.40;;
22826;SDS011;11580;52.562;13.418;2022-07-06T00:24:36;1.33;;;1.23;;
22826;SDS011;11580;52.562;13.418;2022-07-06T00:27:04;1.67;;;1.57;;
22826;SDS011;11580;52.562;13.418;2022-07-06T00:29:32;1.50;;;1.10;;
22826;SDS011;11580;52.562;13.418;2022-07-06T00:31:59;2.10;;;1.20;;
22826;SDS011;11580;52.562;13.418;2022-07-06T00:34:27;2.33;;;1.40;;
22826;SDS011;11580;52.562;13.418;2022-07-06T00:36:54;3.57;;;1.30;;
22826;SDS011;11580;52.562;13.418;2022-07-06T00:39:21;1.50;;;1.30;;
22826;SDS011;11580;52.562;13.418;2022-07-06T00:41:54;2.40;;;1.30;;
22826;SDS011;11580;52.562;13.418;2022-07-06T00:44:22;1.90;;;1.80;;
22826;SDS011;11580;52.562;13.418;2022-07-06T00:46:50;1.77;;;1.47;;
22826;SDS011;11580;52.562;13.418;2022-07-06T00:49:18;1.60;;;1.50;;
22826;SDS011;11580;52.562;13.418;2022-07-06T00:52:03;1.87;;;1.47;;
22826;SDS011;11580;52.562;13.418;2022-07-06T00:54:31;1.47;;;1.37;;
22826;SDS011;11580;52.562;13.418;2022-07-06T00:56:59;2.80;;;1.40;;
22826;SDS011;11580;52.562;13.418;2022-07-06T00:59:26;2.50;;;1.40;;
22826;SDS011;11580;52.562;13.418;2022-07-06T01:01:56;2.30;;;1.20;;
22826;SDS011;11580;52.562;13.418;2022-07-06T01:04:24;1.87;;;1.30;;
22826;SDS011;11580;52.562;13.418;2022-07-06T01:06:51;1.60;;;1.40;;
22826;SDS011;11580;52.562;13.418;2022-07-06T01:09:19;1.80;;;1.70;;
22826;SDS011;11580;52.562;13.418;2022-07-06T01:11:47;3.70;;;1.43;;
22826;SDS011;11580;52.562;13.418;2022-07-06T01:14:14;1.70;;;1.60;;
22826;SDS011;11580;52.562;13.418;2022-07-06T01:16:43;2.20;;;1.53;;
22826;SDS011;11580;52.562;13.418;2022-07-06T01:19:11;2.17;;;1.50;;
22826;SDS011;11580;52.562;13.418;2022-07-06T01:21:40;2.00;;;1.50;;
22826;SDS011;11580;52.562;13.418;2022-07-06T01:24:07;1.43;;;1.33;;
22826;SDS011;11580;52.562;13.418;2022-07-06T01:26:35;2.90;;;1.60;;
22826;SDS011;11580;52.562;13.418;2022-07-06T01:29:02;3.97;;;1.80;;
22826;SDS011;11580;52.562;13.418;2022-07-06T01:31:29;3.90;;;1.60;;
22826;SDS011;11580;52.562;13.418;2022-07-06T01:33:57;1.73;;;1.40;;
22826;SDS011;11580;52.562;13.418;2022-07-06T01:36:25;1.57;;;1.20;;
22826;SDS011;11580;52.562;13.418;2022-07-06T01:38:54;2.33;;;1.40;;
22826;SDS011;11580;52.562;13.418;2022-07-06T01:41:23;1.97;;;1.30;;
22826;SDS011;11580;52.562;13.418;2022-07-06T01:43:51;1.67;;;1.50;;
22826;SDS011;11580;52.562;13.418;2022-07-06T01:46:18;1.43;;;1.30;;
22826;SDS011;11580;52.562;13.418;2022-07-06T01:48:46;1.23;;;1.13;;
22826;SDS011;11580;52.562;13.418;2022-07-06T01:51:14;1.77;;;1.40;;
22826;SDS011;11580;52.562;13.418;2022-07-06T01:53:43;1.60;;;1.50;;
22826;SDS011;11580;52.562;13.418;2022-07-06T01:56:12;3.07;;;1.47;;
22826;SDS011;11580;52.562;13.418;2022-07-06T01:58:43;1.77;;;1.47;;
22826;SDS011;11580;52.562;13.418;2022-07-06T02:01:11;1.37;;;1.27;;
22826;SDS011;11580;52.562;13.418;2022-07-06T02:03:43;1.70;;;1.60;;
22826;SDS011;11580;52.562;13.418;2022-07-06T02:06:11;1.80;;;1.70;;
22826;SDS011;11580;52.562;13.418;2022-07-06T02:08:39;2.37;;;2.00;;
22826;SDS011;11580;52.562;13.418;2022-07-06T02:11:08;1.90;;;1.67;;
22826;SDS011;11580;52.562;13.418;2022-07-06T02:13:40;1.80;;;1.70;;
22826;SDS011;11580;52.562;13.418;2022-07-06T02:16:10;1.57;;;1.20;;
22826;SDS011;11580;52.562;13.418;2022-07-06T02:18:37;1.33;;;1.23;;
22826;SDS011;11580;52.562;13.418;2022-07-06T02:21:04;1.77;;;1.60;;
22826;SDS011;11580;52.562;13.418;2022-07-06T02:23:32;2.07;;;1.87;;
22826;SDS011;11580;52.562;13.418;2022-07-06T02:25:59;1.70;;;1.60;;
22826;SDS011;11580;52.562;13.418;2022-07-06T02:28:28;1.70;;;1.53;;
22826;SDS011;11580;52.562;13.418;2022-07-06T02:30:57;3.40;;;1.43;;
22826;SDS011;11580;52.562;13.418;2022-07-06T02:33:25;3.20;;;2.20;;
22826;SDS011;11580;52.562;13.418;2022-07-06T02:35:53;2.10;;;1.90;;
22826;SDS011;11580;52.562;13.418;2022-07-06T02:38:21;4.33;;;1.87;;
22826;SDS011;11580;52.562;13.418;2022-07-06T02:40:48;2.30;;;2.10;;
22826;SDS011;11580;52.562;13.418;2022-07-06T02:43:16;2.40;;;1.90;;
22826;SDS011;11580;52.562;13.418;2022-07-06T02:45:43;2.33;;;2.13;;
22826;SDS011;11580;52.562;13.418;2022-07-06T02:48:12;2.30;;;2.10;;
22826;SDS011;11580;52.562;13.418;2022-07-06T02:50:40;3.20;;;2.17;;
22826;SDS011;11580;52.562;13.418;2022-07-06T02:53:07;2.50;;;2.30;;
22826;SDS011;11580;52.562;13.418;2022-07-06T02:55:34;2.60;;;2.40;;
22826;SDS011;11580;52.562;13.418;2022-07-06T02:58:04;2.90;;;2.53;;
22826;SDS011;11580;52.562;13.418;2022-07-06T03:00:32;2.23;;;2.03;;
22826;SDS011;11580;52.562;13.418;2022-07-06T03:02:59;3.03;;;2.00;;
22826;SDS011;11580;52.562;13.418;2022-07-06T03:05:29;7.43;;;3.13;;
22826;SDS011;11580;52.562;13.418;2022-07-06T03:07:57;2.50;;;1.93;;
22826;SDS011;11580;52.562;13.418;2022-07-06T03:10:25;2.50;;;2.33;;
22826;SDS011;11580;52.562;13.418;2022-07-06T03:12:53;5.13;;;2.50;;
22826;SDS011;11580;52.562;13.418;2022-07-06T03:15:21;2.53;;;2.10;;
22826;SDS011;11580;52.562;13.418;2022-07-06T03:17:48;3.60;;;2.10;;
22826;SDS011;11580;52.562;13.418;2022-07-06T03:20:16;2.70;;;2.40;;
22826;SDS011;11580;52.562;13.418;2022-07-06T03:22:46;4.00;;;2.13;;
22826;SDS011;11580;52.562;13.418;2022-07-06T03:25:14;2.70;;;2.50;;
22826;SDS011;11580;52.562;13.418;2022-07-06T03:27:42;2.70;;;2.60;;
22826;SDS011;11580;52.562;13.418;2022-07-06T03:30:11;3.20;;;2.50;;
22826;SDS011;11580;52.562;13.418;2022-07-06T03:32:42;2.50;;;2.23;;
22826;SDS011;11580;52.562;13.418;2022-07-06T03:35:10;3.70;;;2.50;;
22826;SDS011;11580;52.562;13.418;2022-07-06T03:37:37;2.30;;;2.10;;
22826;SDS011;11580;52.562;13.418;2022-07-06T03:40:07;2.50;;;2.30;;
22826;SDS011;11580;52.562;13.418;2022-07-06T03:42:35;3.23;;;2.43;;
22826;SDS011;11580;52.562;13.418;2022-07-06T03:45:06;3.17;;;2.27;;
22826;SDS011;11580;52.562;13.418;2022-07-06T03:47:35;2.50;;;2.30;;
22826;SDS011;11580;52.562;13.418;2022-07-06T03:50:03;3.27;;;2.40;;
22826;SDS011;11580;52.562;13.418;2022-07-06T03:52:33;3.20;;;2.20;;
22826;SDS011;11580;52.562;13.418;2022-07-06T03:55:07;4.87;;;2.43;;
22826;SDS011;11580;52.562;13.418;2022-07-06T03:57:37;3.47;;;2.70;;
22826;SDS011;11580;52.562;13.418;2022-07-06T04:00:08;2.43;;;2.30;;
22826;SDS011;11580;52.562;13.418;2022-07-06T04:02:39;3.17;;;2.83;;
22826;SDS011;11580;52.562;13.418;2022-07-06T04:05:12;2.77;;;2.47;;
22826;SDS011;11580;52.562;13.418;2022-07-06T04:07:40;3.90;;;2.40;;
22826;SDS011;11580;52.562;13.418;2022-07-06T04:10:09;2.40;;;2.20;;
22826;SDS011;11580;52.562;13.418;2022-07-06T04:12:39;2.00;;;1.87;;
22826;SDS011;11580;52.562;13.418;2022-07-06T04:15:07;3.97;;;2.27;;
22826;SDS011;11580;52.562;13.418;2022-07-06T04:17:37;2.53;;;2.10;;
22826;SDS011;11580;52.562;13.418;2022-07-06T04:20:31;4.67;;;2.67;;
22826;SDS011;11580;52.562;13.418;2022-07-06T04:23:00;2.17;;;1.97;;
22826;SDS011;11580;52.562;13.418;2022-07-06T04:25:28;2.87;;;2.00;;
22826;SDS011;11580;52.562;13.418;2022-07-06T04:27:58;3.67;;;2.20;;
22826;SDS011;11580;52.562;13.418;2022-07-06T04:30:28;3.27;;;2.20;;
22826;SDS011;11580;52.562;13.418;2022-07-06T04:32:55;2.13;;;1.77;;
22826;SDS011;11580;52.562;13.418;2022-07-06T04:35:26;2.23;;;2.03;;
22826;SDS011;11580;52.562;13.418;2022-07-06T04:37:54;3.17;;;1.83;;
22826;SDS011;11580;52.562;13.418;2022-07-06T04:40:22;1.60;;;1.50;;
22826;SDS011;11580;52.562;13.418;2022-07-06T04:42:55;1.90;;;1.70;;
22826;SDS011;11580;52.562;13.418;2022-07-06T04:45:23;2.63;;;1.60;;
22826;SDS011;11580;52.562;13.418;2022-07-06T04:47:51;1.73;;;1.50;;
22826;SDS011;11580;52.562;13.418;2022-07-06T04:50:19;2.30;;;2.10;;
22826;SDS011;11580;52.562;13.418;2022-07-06T04:52:47;4.43;;;1.63;;
22826;SDS011;11580;52.562;13.418;2022-07-06T04:55:15;2.73;;;1.90;;
22826;SDS011;11580;52.562;13.418;2022-07-06T04:57:42;5.33;;;2.10;;
22826;SDS011;11580;52.562;13.418;2022-07-06T05:00:13;2.90;;;1.93;;
22826;SDS011;11580;52.562;13.418;2022-07-06T05:02:42;1.90;;;1.70;;
22826;SDS011;11580;52.562;13.418;2022-07-06T05:05:09;6.23;;;1.80;;
22826;SDS011;11580;52.562;13.418;2022-07-06T05:07:37;2.60;;;1.40;;
22826;SDS011;11580;52.562;13.418;2022-07-06T05:10:07;2.90;;;1.87;;
22826;SDS011;11580;52.562;13.418;2022-07-06T05:12:38;2.63;;;1.73;;
22826;SDS011;11580;52.562;13.418;2022-07-06T05:15:07;1.50;;;1.40;;
22826;SDS011;11580;52.562;13.418;2022-07-06T05:17:37;3.97;;;1.63;;
22826;SDS011;11580;52.562;13.418;2022-07-06T05:20:05;3.13;;;1.77;;
22826;SDS011;11580;52.562;13.418;2022-07-06T05:22:37;5.17;;;1.77;;
22826;SDS011;11580;52.562;13.418;2022-07-06T05:25:05;5.13;;;1.70;;
22826;SDS011;11580;52.562;13.418;2022-07-06T05:27:32;1.90;;;1.30;;
22826;SDS011;11580;52.562;13.418;2022-07-06T05:30:00;2.10;;;1.37;;
22826;SDS011;11580;52.562;13.418;2022-07-06T05:32:28;1.47;;;1.37;;
22826;SDS011;11580;52.562;13.418;2022-07-06T05:34:57;2.40;;;1.50;;
22826;SDS011;11580;52.562;13.418;2022-07-06T05:37:25;2.43;;;1.40;;
22826;SDS011;11580;52.562;13.418;2022-07-06T05:39:53;1.87;;;1.73;;
22826;SDS011;11580;52.562;13.418;2022-07-06T05:42:21;2.60;;;1.70;;
22826;SDS011;11580;52.562;13.418;2022-07-06T05:44:48;2.00;;;1.80;;
22826;SDS011;11580;52.562;13.418;2022-07-06T05:47:17;2.73;;;1.80;;
22826;SDS011;11580;52.562;13.418;2022-07-06T05:50:04;2.40;;;1.80;;
22826;SDS011;11580;52.562;13.418;2022-07-06T05:52:42;2.30;;;1.90;;
22826;SDS011;11580;52.562;13.418;2022-07-06T05:55:22;5.13;;;2.00;;
22826;SDS011;11580;52.562;13.418;2022-07-06T05:57:51;2.53;;;1.93;;
22826;SDS011;11580;52.562;13.418;2022-07-06T06:00:21;2.87;;;1.67;;
22826;SDS011;11580;52.562;13.418;2022-07-06T06:02:52;2.10;;;1.53;;
22826;SDS011;11580;52.562;13.418;2022-07-06T06:05:22;2.20;;;2.00;;
22826;SDS011;11580;52.562;13.418;2022-07-06T06:07:52;2.83;;;1.63;;
22826;SDS011;11580;52.562;13.418;2022-07-06T06:10:22;2.40;;;1.60;;
22826;SDS011;11580;52.562;13.418;2022-07-06T06:12:53;2.00;;;1.80;;
22826;SDS011;11580;52.562;13.418;2022-07-06T06:15:20;2.33;;;2.00;;
22826;SDS011;11580;52.562;13.418;2022-07-06T06:17:47;3.13;;;2.40;;
22826;SDS011;11580;52.562;13.418;2022-07-06T06:20:15;2.10;;;1.90;;
22826;SDS011;11580;52.562;13.418;2022-07-06T06:22:47;4.30;;;2.10;;
22826;SDS011;11580;52.562;13.418;2022-07-06T06:25:17;5.13;;;2.00;;
22826;SDS011;11580;52.562;13.418;2022-07-06T06:27:47;2.80;;;1.83;;
22826;SDS011;11580;52.562;13.418;2022-07-06T06:30:14;3.40;;;2.27;;
22826;SDS011;11580;52.562;13.418;2022-07-06T06:32:41;2.87;;;1.60;;
22826;SDS011;11580;52.562;13.418;2022-07-06T06:35:09;2.50;;;1.80;;
22826;SDS011;11580;52.562;13.418;2022-07-06T06:37:36;1.90;;;1.70;;
22826;SDS011;11580;52.562;13.418;2022-07-06T06:40:06;3.40;;;1.50;;
22826;SDS011;11580;52.562;13.418;2022-07-06T06:42:35;6.03;;;2.97;;
22826;SDS011;11580;52.562;13.418;2022-07-06T06:45:09;1.80;;;1.53;;
22826;SDS011;11580;52.562;13.418;2022-07-06T06:47:36;2.00;;;1.80;;
22826;SDS011;11580;52.562;13.418;2022-07-06T06:50:04;2.93;;;1.93;;
22826;SDS011;11580;52.562;13.418;2022-07-06T06:52:32;2.57;;;1.60;;
22826;SDS011;11580;52.562;13.418;2022-07-06T06:55:00;3.70;;;1.87;;
22826;SDS011;11580;52.562;13.418;2022-07-06T06:57:28;3.53;;;2.20;;
22826;SDS011;11580;52.562;13.418;2022-07-06T06:59:55;2.20;;;1.67;;
22826;SDS011;11580;52.562;13.418;2022-07-06T07:02:23;2.57;;;1.50;;
22826;SDS011;11580;52.562;13.418;2022-07-06T07:04:50;1.80;;;1.40;;
22826;SDS011;11580;52.562;13.418;2022-07-06T07:07:17;2.60;;;1.67;;
22826;SDS011;11580;52.562;13.418;2022-07-06T07:09:44;3.00;;;1.63;;
22826;SDS011;11580;52.562;13.418;2022-07-06T07:12:12;2.73;;;1.77;;
22826;SDS011;11580;52.562;13.418;2022-07-06T07:14:41;1.63;;;1.37;;
22826;SDS011;11580;52.562;13.418;2022-07-06T07:17:08;3.60;;;1.73;;
22826;SDS011;11580;52.562;13.418;2022-07-06T07:19:36;1.70;;;1.33;;
22826;SDS011;11580;52.562;13.418;2022-07-06T07:22:04;2.80;;;2.00;;
22826;SDS011;11580;52.562;13.418;2022-07-06T07:24:31;2.03;;;1.83;;
22826;SDS011;11580;52.562;13.418;2022-07-06T07:26:59;1.40;;;1.30;;
22826;SDS011;11580;52.562;13.418;2022-07-06T07:29:26;1.77;;;1.53;;
22826;SDS011;11580;52.562;13.418;2022-07-06T07:31:55;1.53;;;1.43;;
22826;SDS011;11580;52.562;13.418;2022-07-06T07:34:22;1.97;;;1.40;;
22826;SDS011;11580;52.562;13.418;2022-07-06T07:36:49;1.83;;;1.40;;
22826;SDS011;11580;52.562;13.418;2022-07-06T07:39:16;1.60;;;1.23;;
22826;SDS011;11580;52.562;13.418;2022-07-06T07:41:44;2.53;;;1.53;;
22826;SDS011;11580;52.562;13.418;2022-07-06T07:44:11;1.80;;;1.20;;
22826;SDS011;11580;52.562;13.418;2022-07-06T07:46:38;2.70;;;1.80;;
22826;SDS011;11580;52.562;13.418;2022-07-06T07:49:07;1.43;;;1.33;;
22826;SDS011;11580;52.562;13.418;2022-07-06T07:51:36;4.47;;;1.30;;
22826;SDS011;11580;52.562;13.418;2022-07-06T07:54:03;1.30;;;1.20;;
22826;SDS011;11580;52.562;13.418;2022-07-06T07:56:31;1.37;;;1.27;;
22826;SDS011;11580;52.562;13.418;2022-07-06T07:58:58;4.33;;;1.60;;
22826;SDS011;11580;52.562;13.418;2022-07-06T08:01:29;2.90;;;1.60;;
22826;SDS011;11580;52.562;13.418;2022-07-06T08:03:56;2.70;;;1.30;;
22826;SDS011;11580;52.562;13.418;2022-07-06T08:06:25;1.50;;;1.40;;
22826;SDS011;11580;52.562;13.418;2022-07-06T08:08:52;1.43;;;1.30;;
22826;SDS011;11580;52.562;13.418;2022-07-06T08:11:19;1.30;;;1.20;;
22826;SDS011;11580;52.562;13.418;2022-07-06T08:13:47;1.53;;;1.30;;
22826;SDS011;11580;52.562;13.418;2022-07-06T08:16:14;1.50;;;1.20;;
22826;SDS011;11580;52.562;13.418;2022-07-06T08:18:41;2.20;;;1.50;;
22826;SDS011;11580;52.562;13.418;2022-07-06T08:21:09;1.70;;;1.60;;
22826;SDS011;11580;52.562;13.418;2022-07-06T08:23:37;5.23;;;1.43;;
22826;SDS011;11580;52.562;13.418;2022-07-06T08:26:05;2.00;;;1.33;;
22826;SDS011;11580;52.562;13.418;2022-07-06T08:28:32;1.30;;;1.10;;
22826;SDS011;11580;52.562;13.418;2022-07-06T08:30:59;2.17;;;1.40;;
22826;SDS011;11580;52.562;13.418;2022-07-06T08:33:26;2.07;;;1.20;;
22826;SDS011;11580;52.562;13.418;2022-07-06T08:35:54;1.13;;;0.90;;
22826;SDS011;11580;52.562;13.418;2022-07-06T08:38:21;2.40;;;1.30;;
22826;SDS011;11580;52.562;13.418;2022-07-06T08:40:50;3.33;;;1.93;;
22826;SDS011;11580;52.562;13.418;2022-07-06T08:43:18;1.47;;;1.10;;
22826;SDS011;11580;52.562;13.418;2022-07-06T08:45:45;2.33;;;1.50;;
22826;SDS011;11580;52.562;13.418;2022-07-06T08:48:16;1.50;;;1.40;;
22826;SDS011;11580;52.562;13.418;2022-07-06T08:50:48;2.00;;;1.10;;
22826;SDS011;11580;52.562;13.418;2022-07-06T08:53:16;1.90;;;1.30;;
22826;SDS011;11580;52.562;13.418;2022-07-06T08:55:44;1.00;;;0.90;;
22826;SDS011;11580;52.562;13.418;2022-07-06T08:58:13;2.00;;;0.93;;
22826;SDS011;11580;52.562;13.418;2022-07-06T09:00:40;1.23;;;1.00;;
22826;SDS011;11580;52.562;13.418;2022-07-06T09:03:10;0.90;;;0.90;;
22826;SDS011;11580;52.562;13.418;2022-07-06T09:05:39;3.20;;;1.20;;
22826;SDS011;11580;52.562;13.418;2022-07-06T09:08:11;2.27;;;1.17;;
22826;SDS011;11580;52.562;13.418;2022-07-06T09:10:39;1.30;;;1.20;;
22826;SDS011;11580;52.562;13.418;2022-07-06T09:13:07;1.40;;;0.87;;
22826;SDS011;11580;52.562;13.418;2022-07-06T09:15:37;1.73;;;1.00;;
22826;SDS011;11580;52.562;13.418;2022-07-06T09:18:05;1.73;;;1.37;;
22826;SDS011;11580;52.562;13.418;2022-07-06T09:20:33;1.90;;;0.90;;
22826;SDS011;11580;52.562;13.418;2022-07-06T09:23:01;0.90;;;0.80;;
22826;SDS011;11580;52.562;13.418;2022-07-06T09:25:31;1.00;;;0.90;;
22826;SDS011;11580;52.562;13.418;2022-07-06T09:28:00;1.67;;;0.93;;
22826;SDS011;11580;52.562;13.418;2022-07-06T09:30:30;1.13;;;1.00;;
22826;SDS011;11580;52.562;13.418;2022-07-06T09:32:59;1.60;;;1.10;;
22826;SDS011;11580;52.562;13.418;2022-07-06T09:35:27;1.50;;;0.90;;
22826;SDS011;11580;52.562;13.418;2022-07-06T09:38:02;0.97;;;0.90;;
22826;SDS011;11580;52.562;13.418;2022-07-06T09:40:31;2.30;;;1.03;;
22826;SDS011;11580;52.562;13.418;2022-07-06T09:43:07;1.10;;;1.00;;
22826;SDS011;11580;52.562;13.418;2022-07-06T09:45:41;2.50;;;0.80;;
22826;SDS011;11580;52.562;13.418;2022-07-06T09:48:11;1.10;;;0.83;;
22826;SDS011;11580;52.562;13.418;2022-07-06T09:50:44;1.17;;;1.03;;
22826;SDS011;11580;52.562;13.418;2022-07-06T09:53:13;1.30;;;1.20;;
22826;SDS011;11580;52.562;13.418;2022-07-06T09:55:44;1.20;;;0.90;;
22826;SDS011;11580;52.562;13.418;2022-07-06T09:58:13;2.27;;;1.03;;
22826;SDS011;11580;52.562;13.418;2022-07-06T10:00:41;2.13;;;1.00;;
22826;SDS011;11580;52.562;13.418;2022-07-06T10:03:10;1.23;;;0.97;;
22826;SDS011;11580;52.562;13.418;2022-07-06T10:05:40;1.17;;;1.07;;
22826;SDS011;11580;52.562;13.418;2022-07-06T10:08:11;4.07;;;1.30;;
22826;SDS011;11580;52.562;13.418;2022-07-06T10:10:41;1.37;;;1.13;;
22826;SDS011;11580;52.562;13.418;2022-07-06T10:13:09;2.87;;;1.40;;
22826;SDS011;11580;52.562;13.418;2022-07-06T10:15:38;3.20;;;1.27;;
22826;SDS011;11580;52.562;13.418;2022-07-06T10:18:07;2.67;;;1.37;;
22826;SDS011;11580;52.562;13.418;2022-07-06T10:20:38;1.80;;;1.13;;
22826;SDS011;11580;52.562;13.418;2022-07-06T10:23:07;1.87;;;1.30;;
22826;SDS011;11580;52.562;13.418;2022-07-06T10:25:35;2.87;;;1.20;;
22826;SDS011;11580;52.562;13.418;2022-07-06T10:28:02;2.20;;;1.30;;
22826;SDS011;11580;52.562;13.418;2022-07-06T10:30:39;0.87;;;0.80;;
22826;SDS011;11580;52.562;13.418;2022-07-06T10:33:06;1.13;;;0.90;;
22826;SDS011;11580;52.562;13.418;2022-07-06T10:35:36;3.90;;;0.80;;
22826;SDS011;11580;52.562;13.418;2022-07-06T10:38:09;1.27;;;1.17;;
22826;SDS011;11580;52.562;13.418;2022-07-06T10:40:37;1.00;;;0.80;;
22826;SDS011;11580;52.562;13.418;2022-07-06T10:43:30;2.13;;;0.93;;
22826;SDS011;11580;52.562;13.418;2022-07-06T10:45:59;2.47;;;1.47;;
22826;SDS011;11580;52.562;13.418;2022-07-06T10:48:37;2.10;;;0.90;;
22826;SDS011;11580;52.562;13.418;2022-07-06T10:51:07;2.03;;;0.70;;
22826;SDS011;11580;52.562;13.418;2022-07-06T10:53:37;1.27;;;0.90;;
22826;SDS011;11580;52.562;13.418;2022-07-06T10:56:06;0.97;;;0.60;;
22826;SDS011;11580;52.562;13.418;2022-07-06T10:58:35;0.93;;;0.90;;
22826;SDS011;11580;52.562;13.418;2022-07-06T11:01:08;1.23;;;0.80;;
22826;SDS011;11580;52.562;13.418;2022-07-06T11:03:37;1.80;;;0.87;;
22826;SDS011;11580;52.562;13.418;2022-07-06T11:06:10;2.30;;;1.00;;
22826;SDS011;11580;52.562;13.418;2022-07-06T11:08:41;2.10;;;1.03;;
22826;SDS011;11580;52.562;13.418;2022-07-06T11:11:17;0.70;;;0.70;;
22826;SDS011;11580;52.562;13.418;2022-07-06T11:13:47;1.47;;;0.80;;
22826;SDS011;11580;52.562;13.418;2022-07-06T11:16:17;1.90;;;0.90;;
22826;SDS011;11580;52.562;13.418;2022-07-06T11:18:48;1.23;;;0.80;;
22826;SDS011;11580;52.562;13.418;2022-07-06T11:21:32;1.23;;;0.80;;
22826;SDS011;11580;52.562;13.418;2022-07-06T11:24:06;2.23;;;0.90;;
22826;SDS011;11580;52.562;13.418;2022-07-06T11:26:37;1.43;;;0.73;;
22826;SDS011;11580;52.562;13.418;2022-07-06T11:29:05;0.70;;;0.70;;
22826;SDS011;11580;52.562;13.418;2022-07-06T11:31:35;2.50;;;0.80;;
22826;SDS011;11580;52.562;13.418;2022-07-06T11:34:04;1.97;;;1.17;;
22826;SDS011;11580;52.562;13.418;2022-07-06T11:36:35;1.23;;;0.90;;
22826;SDS011;11580;52.562;13.418;2022-07-06T11:39:04;1.87;;;1.00;;
22826;SDS011;11580;52.562;13.418;2022-07-06T11:41:31;1.20;;;1.00;;
22826;SDS011;11580;52.562;13.418;2022-07-06T11:44:00;1.50;;;0.97;;
22826;SDS011;11580;52.562;13.418;2022-07-06T11:46:28;1.67;;;1.07;;
22826;SDS011;11580;52.562;13.418;2022-07-06T11:48:57;3.60;;;1.40;;
22826;SDS011;11580;52.562;13.418;2022-07-06T11:51:29;1.63;;;1.10;;
22826;SDS011;11580;52.562;13.418;2022-07-06T11:54:00;1.17;;;0.97;;
22826;SDS011;11580;52.562;13.418;2022-07-06T11:56:35;1.60;;;1.00;;
22826;SDS011;11580;52.562;13.418;2022-07-06T11:59:02;2.10;;;0.93;;
22826;SDS011;11580;52.562;13.418;2022-07-06T12:01:30;2.30;;;1.00;;
22826;SDS011;11580;52.562;13.418;2022-07-06T12:03:58;2.27;;;1.00;;
22826;SDS011;11580;52.562;13.418;2022-07-06T12:06:26;0.70;;;0.70;;
22826;SDS011;11580;52.562;13.418;2022-07-06T12:08:55;1.73;;;0.90;;
22826;SDS011;11580;52.562;13.418;2022-07-06T12:11:25;3.83;;;0.87;;
22826;SDS011;11580;52.562;13.418;2022-07-06T12:13:55;1.90;;;0.90;;
22826;SDS011;11580;52.562;13.418;2022-07-06T12:16:28;1.07;;;0.70;;
22826;SDS011;11580;52.562;13.418;2022-07-06T12:18:56;0.97;;;0.80;;
22826;SDS011;11580;52.562;13.418;2022-07-06T12:21:24;1.43;;;0.80;;
22826;SDS011;11580;52.562;13.418;2022-07-06T12:23:52;1.23;;;1.13;;
22826;SDS011;11580;52.562;13.418;2022-07-06T12:26:22;1.40;;;1.03;;
22826;SDS011;11580;52.562;13.418;2022-07-06T12:29:01;2.37;;;2.03;;
22826;SDS011;11580;52.562;13.418;2022-07-06T12:31:33;1.30;;;1.20;;
22826;SDS011;11580;52.562;13.418;2022-07-06T12:34:03;1.13;;;0.77;;
22826;SDS011;11580;52.562;13.418;2022-07-06T12:36:31;1.63;;;1.27;;
22826;SDS011;11580;52.562;13.418;2022-07-06T12:39:10;1.10;;;0.70;;
22826;SDS011;11580;52.562;13.418;2022-07-06T12:41:43;0.80;;;0.70;;
22826;SDS011;11580;52.562;13.418;2022-07-06T12:44:13;1.47;;;0.90;;
22826;SDS011;11580;52.562;13.418;2022-07-06T12:46:44;1.40;;;0.87;;
22826;SDS011;11580;52.562;13.418;2022-07-06T12:49:16;1.03;;;0.70;;
22826;SDS011;11580;52.562;13.418;2022-07-06T12:51:56;2.90;;;0.80;;
22826;SDS011;11580;52.562;13.418;2022-07-06T12:54:27;1.00;;;0.70;;
22826;SDS011;11580;52.562;13.418;2022-07-06T12:57:02;0.80;;;0.80;;
22826;SDS011;11580;52.562;13.418;2022-07-06T12:59:38;1.00;;;0.80;;
22826;SDS011;11580;52.562;13.418;2022-07-06T13:02:08;1.10;;;0.80;;
22826;SDS011;11580;52.562;13.418;2022-07-06T13:04:48;0.87;;;0.80;;
22826;SDS011;11580;52.562;13.418;2022-07-06T13:07:23;0.70;;;0.60;;
22826;SDS011;11580;52.562;13.418;2022-07-06T13:09:51;1.77;;;0.77;;
22826;SDS011;11580;52.562;13.418;2022-07-06T13:12:20;1.90;;;0.93;;
22826;SDS011;11580;52.562;13.418;2022-07-06T13:14:48;1.70;;;0.90;;
22826;SDS011;11580;52.562;13.418;2022-07-06T13:17:17;1.60;;;0.73;;
22826;SDS011;11580;52.562;13.418;2022-07-06T13:19:44;0.70;;;0.60;;
22826;SDS011;11580;52.562;13.418;2022-07-06T13:22:12;1.93;;;0.90;;
22826;SDS011;11580;52.562;13.418;2022-07-06T13:24:39;1.33;;;0.80;;
22826;SDS011;11580;52.562;13.418;2022-07-06T13:27:06;1.20;;;1.10;;
22826;SDS011;11580;52.562;13.418;2022-07-06T13:29:36;1.10;;;0.83;;
22826;SDS011;11580;52.562;13.418;2022-07-06T13:32:03;1.33;;;0.70;;
22826;SDS011;11580;52.562;13.418;2022-07-06T13:34:32;1.37;;;0.70;;
22826;SDS011;11580;52.562;13.418;2022-07-06T13:37:00;1.00;;;0.70;;
22826;SDS011;11580;52.562;13.418;2022-07-06T13:39:27;0.93;;;0.73;;
22826;SDS011;11580;52.562;13.418;2022-07-06T13:41:54;0.93;;;0.70;;
22826;SDS011;11580;52.562;13.418;2022-07-06T13:44:22;1.50;;;1.20;;
22826;SDS011;11580;52.562;13.418;2022-07-06T13:46:51;3.03;;;0.70;;
22826;SDS011;11580;52.562;13.418;2022-07-06T13:49:18;2.10;;;0.70;;
22826;SDS011;11580;52.562;13.418;2022-07-06T13:51:45;2.17;;;0.80;;
22826;SDS011;11580;52.562;13.418;2022-07-06T13:54:13;1.20;;;0.70;;
22826;SDS011;11580;52.562;13.418;2022-07-06T13:56:40;1.27;;;0.70;;
22826;SDS011;11580;52.562;13.418;2022-07-06T13:59:07;0.70;;;0.67;;
22826;SDS011;11580;52.562;13.418;2022-07-06T14:01:35;0.70;;;0.70;;
22826;SDS011;11580;52.562;13.418;2022-07-06T14:04:03;1.23;;;0.60;;
22826;SDS011;11580;52.562;13.418;2022-07-06T14:06:31;1.57;;;0.80;;
22826;SDS011;11580;52.562;13.418;2022-07-06T14:09:00;1.73;;;0.83;;
22826;SDS011;11580;52.562;13.418;2022-07-06T14:11:27;0.60;;;0.60;;
22826;SDS011;11580;52.562;13.418;2022-07-06T14:13:55;1.17;;;0.60;;
22826;SDS011;11580;52.562;13.418;2022-07-06T14:16:22;4.27;;;0.77;;
22826;SDS011;11580;52.562;13.418;2022-07-06T14:18:49;0.50;;;0.50;;
22826;SDS011;11580;52.562;13.418;2022-07-06T14:21:18;0.90;;;0.70;;
22826;SDS011;11580;52.562;13.418;2022-07-06T14:23:45;0.80;;;0.60;;
22826;SDS011;11580;52.562;13.418;2022-07-06T14:26:13;0.73;;;0.73;;
22826;SDS011;11580;52.562;13.418;2022-07-06T14:28:41;1.20;;;0.90;;
22826;SDS011;11580;52.562;13.418;2022-07-06T14:31:08;0.90;;;0.60;;
22826;SDS011;11580;52.562;13.418;2022-07-06T14:33:35;0.80;;;0.67;;
22826;SDS011;11580;52.562;13.418;2022-07-06T14:36:03;1.13;;;0.80;;
22826;SDS011;11580;52.562;13.418;2022-07-06T14:38:32;0.90;;;0.90;;
22826;SDS011;11580;52.562;13.418;2022-07-06T14:40:59;1.87;;;0.83;;
22826;SDS011;11580;52.562;13.418;2022-07-06T14:43:26;1.97;;;1.10;;